sensor_id;sensor_type;location;lat;lon;timestamp;pressure;altitude;pressure_sealevel;temperature;humidity
36514;BME280;74739;46.796;9.824;2024-02-28T00:00:49;84074.27;;;-3.02;69.71
36514;BME280;74739;46.796;9.824;2024-02-28T00:03:15;84071.70;;;0.83;60.91
36514;BME280;74739;46.796;9.824;2024-02-28T00:05:43;84074.02;;;-0.74;64.29
36514;BME280;74739;46.796;9.824;2024-02-28T00:08:10;84076.39;;;0.81;59.96
36514;BME280;74739;46.796;9.824;2024-02-28T00:10:36;84075.02;;;0.44;60.93
36514;BME280;74739;46.796;9.824;2024-02-28T00:13:03;84080.71;;;-1.17;65.09
36514;BME280;74739;46.796;9.824;2024-02-28T00:15:31;84079.89;;;0.06;62.30
36514;BME280;74739;46.796;9.824;2024-02-28T00:17:57;84083.24;;;0.59;61.33
36514;BME280;74739;46.796;9.824;2024-02-28T00:20:24;84089.84;;;-1.93;68.39
36514;BME280;74739;46.796;9.824;2024-02-28T00:22:52;84084.30;;;0.27;62.68
36514;BME280;74739;46.796;9.824;2024-02-28T00:25:20;84082.60;;;-1.23;66.17
36514;BME280;74739;46.796;9.824;2024-02-28T00:27:46;84087.77;;;-1.54;66.75
36514;BME280;74739;46.796;9.824;2024-02-28T00:30:13;84086.44;;;0.56;62.52
36514;BME280;74739;46.796;9.824;2024-02-28T00:32:40;84089.67;;;0.92;60.80
36514;BME280;74739;46.796;9.824;2024-02-28T00:35:08;84092.88;;;0.80;61.60
36514;BME280;74739;46.796;9.824;2024-02-28T00:37:34;84100.50;;;-0.81;63.88
36514;BME280;74739;46.796;9.824;2024-02-28T00:40:01;84111.26;;;-2.17;71.50
36514;BME280;74739;46.796;9.824;2024-02-28T00:42:28;84113.14;;;-1.59;73.09
36514;BME280;74739;46.796;9.824;2024-02-28T00:44:55;84113.54;;;-1.40;72.58
36514;BME280;74739;46.796;9.824;2024-02-28T00:47:22;84111.02;;;-1.31;71.02
36514;BME280;74739;46.796;9.824;2024-02-28T00:49:49;84103.89;;;-1.00;69.25
36514;BME280;74739;46.796;9.824;2024-02-28T00:52:16;84104.64;;;-0.66;68.23
36514;BME280;74739;46.796;9.824;2024-02-28T00:54:43;84101.31;;;-0.05;64.31
36514;BME280;74739;46.796;9.824;2024-02-28T00:57:10;84105.24;;;-1.37;68.42
36514;BME280;74739;46.796;9.824;2024-02-28T00:59:37;84109.04;;;-2.00;69.01
36514;BME280;74739;46.796;9.824;2024-02-28T01:02:03;84119.39;;;-3.12;78.20
36514;BME280;74739;46.796;9.824;2024-02-28T01:04:30;84131.01;;;-3.73;83.37
36514;BME280;74739;46.796;9.824;2024-02-28T01:06:58;84123.70;;;-3.42;83.11
36514;BME280;74739;46.796;9.824;2024-02-28T01:09:26;84123.07;;;-1.27;71.65
36514;BME280;74739;46.796;9.824;2024-02-28T01:11:54;84127.26;;;-0.98;69.29
36514;BME280;74739;46.796;9.824;2024-02-28T01:14:22;84129.18;;;-1.02;68.97
36514;BME280;74739;46.796;9.824;2024-02-28T01:16:51;84126.18;;;-2.24;70.71
36514;BME280;74739;46.796;9.824;2024-02-28T01:19:18;84126.30;;;-2.02;72.57
36514;BME280;74739;46.796;9.824;2024-02-28T01:21:47;84126.65;;;-1.36;67.53
36514;BME280;74739;46.796;9.824;2024-02-28T01:24:15;84131.07;;;-2.48;72.97
36514;BME280;74739;46.796;9.824;2024-02-28T01:26:44;84134.25;;;-2.95;76.79
36514;BME280;74739;46.796;9.824;2024-02-28T01:29:12;84137.85;;;-3.38;76.43
36514;BME280;74739;46.796;9.824;2024-02-28T01:31:40;84138.53;;;-3.24;77.97
36514;BME280;74739;46.796;9.824;2024-02-28T01:34:08;84132.81;;;-1.21;72.12
36514;BME280;74739;46.796;9.824;2024-02-28T01:36:36;84130.98;;;-0.11;65.84
36514;BME280;74739;46.796;9.824;2024-02-28T01:39:05;84134.31;;;0.35;63.74
36514;BME280;74739;46.796;9.824;2024-02-28T01:41:33;84130.23;;;0.56;62.00
36514;BME280;74739;46.796;9.824;2024-02-28T01:44:01;84133.06;;;0.72;61.12
36514;BME280;74739;46.796;9.824;2024-02-28T01:46:30;84137.15;;;0.13;62.32
36514;BME280;74739;46.796;9.824;2024-02-28T01:49:00;84139.32;;;0.08;62.53
36514;BME280;74739;46.796;9.824;2024-02-28T01:51:28;84144.33;;;-2.55;70.15
36514;BME280;74739;46.796;9.824;2024-02-28T01:53:57;84149.82;;;-2.35;73.33
36514;BME280;74739;46.796;9.824;2024-02-28T01:56:26;84155.77;;;-3.36;76.70
36514;BME280;74739;46.796;9.824;2024-02-28T01:58:55;84148.04;;;-2.80;79.34
36514;BME280;74739;46.796;9.824;2024-02-28T02:01:25;84143.59;;;-1.44;69.71
36514;BME280;74739;46.796;9.824;2024-02-28T02:03:54;84147.45;;;-0.89;65.11
36514;BME280;74739;46.796;9.824;2024-02-28T02:06:23;84148.89;;;-2.08;71.73
36514;BME280;74739;46.796;9.824;2024-02-28T02:08:51;84140.85;;;-0.26;64.02
36514;BME280;74739;46.796;9.824;2024-02-28T02:11:19;84134.73;;;0.71;60.86
36514;BME280;74739;46.796;9.824;2024-02-28T02:13:49;84135.96;;;0.85;59.43
36514;BME280;74739;46.796;9.824;2024-02-28T02:16:19;84135.04;;;1.00;59.10
36514;BME280;74739;46.796;9.824;2024-02-28T02:18:48;84137.12;;;-0.49;63.80
36514;BME280;74739;46.796;9.824;2024-02-28T02:21:19;84137.50;;;-0.36;64.33
36514;BME280;74739;46.796;9.824;2024-02-28T02:23:48;84141.36;;;-2.20;70.92
36514;BME280;74739;46.796;9.824;2024-02-28T02:26:16;84138.66;;;-0.59;65.15
36514;BME280;74739;46.796;9.824;2024-02-28T02:28:45;84135.00;;;-0.45;63.45
36514;BME280;74739;46.796;9.824;2024-02-28T02:31:14;84130.06;;;0.72;60.12
36514;BME280;74739;46.796;9.824;2024-02-28T02:33:42;84133.97;;;-1.50;64.49
36514;BME280;74739;46.796;9.824;2024-02-28T02:36:18;84132.41;;;-2.02;64.19
36514;BME280;74739;46.796;9.824;2024-02-28T02:38:46;84137.45;;;-3.42;74.78
36514;BME280;74739;46.796;9.824;2024-02-28T02:41:15;84136.47;;;-3.11;76.39
36514;BME280;74739;46.796;9.824;2024-02-28T02:43:43;84131.64;;;-1.78;71.83
36514;BME280;74739;46.796;9.824;2024-02-28T02:46:12;84136.16;;;-1.40;66.60
36514;BME280;74739;46.796;9.824;2024-02-28T02:48:40;84139.62;;;0.11;63.23
36514;BME280;74739;46.796;9.824;2024-02-28T02:51:09;84136.16;;;0.61;61.67
36514;BME280;74739;46.796;9.824;2024-02-28T02:53:36;84142.46;;;-1.83;67.43
36514;BME280;74739;46.796;9.824;2024-02-28T02:56:05;84143.94;;;-1.03;68.44
36514;BME280;74739;46.796;9.824;2024-02-28T02:58:33;84142.24;;;0.39;63.66
36514;BME280;74739;46.796;9.824;2024-02-28T03:01:02;84137.43;;;0.14;63.09
36514;BME280;74739;46.796;9.824;2024-02-28T03:03:30;84140.45;;;0.63;61.75
36514;BME280;74739;46.796;9.824;2024-02-28T03:05:59;84146.41;;;-0.90;66.23
36514;BME280;74739;46.796;9.824;2024-02-28T03:08:26;84145.85;;;-0.90;66.12
36514;BME280;74739;46.796;9.824;2024-02-28T03:10:54;84144.37;;;0.50;62.28
36514;BME280;74739;46.796;9.824;2024-02-28T03:13:21;84144.98;;;0.27;62.23
36514;BME280;74739;46.796;9.824;2024-02-28T03:15:49;84143.60;;;-0.32;64.21
36514;BME280;74739;46.796;9.824;2024-02-28T03:18:17;84147.25;;;-1.56;69.09
36514;BME280;74739;46.796;9.824;2024-02-28T03:20:44;84156.83;;;-2.75;76.01
36514;BME280;74739;46.796;9.824;2024-02-28T03:23:12;84160.13;;;-3.37;79.66
36514;BME280;74739;46.796;9.824;2024-02-28T03:25:40;84158.59;;;-2.04;74.22
36514;BME280;74739;46.796;9.824;2024-02-28T03:28:07;84152.07;;;-1.33;68.67
36514;BME280;74739;46.796;9.824;2024-02-28T03:30:41;84155.46;;;-1.54;68.31
36514;BME280;74739;46.796;9.824;2024-02-28T03:33:10;84156.47;;;-1.43;68.71
36514;BME280;74739;46.796;9.824;2024-02-28T03:35:37;84162.52;;;-1.11;68.91
36514;BME280;74739;46.796;9.824;2024-02-28T03:38:05;84162.64;;;-0.64;66.05
36514;BME280;74739;46.796;9.824;2024-02-28T03:40:32;84161.61;;;-0.50;65.58
36514;BME280;74739;46.796;9.824;2024-02-28T03:43:00;84165.93;;;0.25;63.61
36514;BME280;74739;46.796;9.824;2024-02-28T03:45:29;84164.97;;;-0.74;63.52
36514;BME280;74739;46.796;9.824;2024-02-28T03:47:56;84165.83;;;0.78;60.68
36514;BME280;74739;46.796;9.824;2024-02-28T03:50:24;84171.12;;;-0.66;62.43
36514;BME280;74739;46.796;9.824;2024-02-28T03:52:51;84173.67;;;-0.45;63.89
36514;BME280;74739;46.796;9.824;2024-02-28T03:55:20;84175.78;;;-1.78;66.00
36514;BME280;74739;46.796;9.824;2024-02-28T03:57:47;84178.20;;;-1.23;68.06
36514;BME280;74739;46.796;9.824;2024-02-28T04:00:16;84181.17;;;-1.88;69.35
36514;BME280;74739;46.796;9.824;2024-02-28T04:02:43;84185.43;;;-2.94;71.21
36514;BME280;74739;46.796;9.824;2024-02-28T04:05:11;84186.40;;;-2.11;68.91
36514;BME280;74739;46.796;9.824;2024-02-28T04:07:38;84181.69;;;-1.10;67.23
36514;BME280;74739;46.796;9.824;2024-02-28T04:10:06;84186.08;;;-0.88;66.53
36514;BME280;74739;46.796;9.824;2024-02-28T04:12:33;84195.16;;;-3.56;74.55
36514;BME280;74739;46.796;9.824;2024-02-28T04:15:00;84189.04;;;-1.63;70.02
36514;BME280;74739;46.796;9.824;2024-02-28T04:17:28;84191.32;;;-1.70;68.80
36514;BME280;74739;46.796;9.824;2024-02-28T04:19:55;84192.71;;;-1.12;66.08
36514;BME280;74739;46.796;9.824;2024-02-28T04:22:22;84200.97;;;-1.70;68.26
36514;BME280;74739;46.796;9.824;2024-02-28T04:24:49;84198.72;;;-1.86;68.60
36514;BME280;74739;46.796;9.824;2024-02-28T04:27:17;84204.68;;;-3.73;76.85
36514;BME280;74739;46.796;9.824;2024-02-28T04:29:44;84204.33;;;-3.78;77.74
36514;BME280;74739;46.796;9.824;2024-02-28T04:32:11;84206.40;;;-2.29;74.58
36514;BME280;74739;46.796;9.824;2024-02-28T04:34:38;84202.85;;;-0.92;67.71
36514;BME280;74739;46.796;9.824;2024-02-28T04:37:05;84203.61;;;-1.31;68.13
36514;BME280;74739;46.796;9.824;2024-02-28T04:39:32;84209.49;;;-1.85;69.34
36514;BME280;74739;46.796;9.824;2024-02-28T04:41:59;84206.55;;;-1.26;68.12
36514;BME280;74739;46.796;9.824;2024-02-28T04:44:27;84211.70;;;-1.83;68.25
36514;BME280;74739;46.796;9.824;2024-02-28T04:46:54;84211.76;;;-0.96;66.32
36514;BME280;74739;46.796;9.824;2024-02-28T04:49:21;84217.59;;;-0.92;66.75
36514;BME280;74739;46.796;9.824;2024-02-28T04:51:49;84217.81;;;-0.73;66.95
36514;BME280;74739;46.796;9.824;2024-02-28T04:54:16;84224.31;;;-1.77;68.76
36514;BME280;74739;46.796;9.824;2024-02-28T04:56:43;84221.11;;;-0.46;65.19
36514;BME280;74739;46.796;9.824;2024-02-28T04:59:11;84229.37;;;-1.53;69.75
36514;BME280;74739;46.796;9.824;2024-02-28T05:01:39;84234.75;;;-2.59;72.54
36514;BME280;74739;46.796;9.824;2024-02-28T05:04:07;84229.59;;;-1.54;69.44
36514;BME280;74739;46.796;9.824;2024-02-28T05:06:34;84237.12;;;-2.60;72.24
36514;BME280;74739;46.796;9.824;2024-02-28T05:09:02;84229.35;;;-0.67;65.83
36514;BME280;74739;46.796;9.824;2024-02-28T05:11:28;84235.99;;;-2.87;71.62
36514;BME280;74739;46.796;9.824;2024-02-28T05:13:55;84229.36;;;-0.54;66.15
36514;BME280;74739;46.796;9.824;2024-02-28T05:16:22;84231.31;;;-0.13;63.66
36514;BME280;74739;46.796;9.824;2024-02-28T05:18:49;84230.06;;;-0.16;62.21
36514;BME280;74739;46.796;9.824;2024-02-28T05:21:16;84234.53;;;0.15;62.00
36514;BME280;74739;46.796;9.824;2024-02-28T05:23:43;84232.01;;;0.21;61.38
36514;BME280;74739;46.796;9.824;2024-02-28T05:26:09;84246.15;;;-2.65;71.14
36514;BME280;74739;46.796;9.824;2024-02-28T05:28:37;84249.50;;;-3.03;73.00
36514;BME280;74739;46.796;9.824;2024-02-28T05:31:20;84249.33;;;-3.22;74.08
36514;BME280;74739;46.796;9.824;2024-02-28T05:33:47;84246.25;;;-2.89;74.07
36514;BME280;74739;46.796;9.824;2024-02-28T05:36:14;84240.74;;;-0.47;65.26
36514;BME280;74739;46.796;9.824;2024-02-28T05:38:41;84246.59;;;-1.23;64.48
36514;BME280;74739;46.796;9.824;2024-02-28T05:41:07;84252.95;;;-1.76;69.88
36514;BME280;74739;46.796;9.824;2024-02-28T05:43:34;84248.11;;;-0.34;64.05
36514;BME280;74739;46.796;9.824;2024-02-28T05:46:03;84256.97;;;-3.58;74.64
36514;BME280;74739;46.796;9.824;2024-02-28T05:48:31;84260.85;;;-3.49;76.43
36514;BME280;74739;46.796;9.824;2024-02-28T05:51:01;84260.44;;;-3.50;75.96
36514;BME280;74739;46.796;9.824;2024-02-28T05:53:28;84259.07;;;-3.72;78.60
36514;BME280;74739;46.796;9.824;2024-02-28T05:55:55;84262.27;;;-3.54;80.62
36514;BME280;74739;46.796;9.824;2024-02-28T05:58:22;84256.03;;;-1.36;69.15
36514;BME280;74739;46.796;9.824;2024-02-28T06:00:48;84256.77;;;-0.41;65.15
36514;BME280;74739;46.796;9.824;2024-02-28T06:03:15;84258.28;;;-1.22;64.80
36514;BME280;74739;46.796;9.824;2024-02-28T06:05:42;84260.28;;;0.08;62.17
36514;BME280;74739;46.796;9.824;2024-02-28T06:08:09;84263.42;;;0.34;62.27
36514;BME280;74739;46.796;9.824;2024-02-28T06:10:36;84266.93;;;0.04;61.98
36514;BME280;74739;46.796;9.824;2024-02-28T06:13:04;84276.50;;;-1.98;66.40
36514;BME280;74739;46.796;9.824;2024-02-28T06:15:31;84277.26;;;-2.11;67.64
36514;BME280;74739;46.796;9.824;2024-02-28T06:17:58;84276.73;;;-1.64;71.42
36514;BME280;74739;46.796;9.824;2024-02-28T06:20:26;84272.31;;;-0.83;66.73
36514;BME280;74739;46.796;9.824;2024-02-28T06:22:53;84270.60;;;0.21;62.24
36514;BME280;74739;46.796;9.824;2024-02-28T06:25:21;84278.04;;;-1.34;65.49
36514;BME280;74739;46.796;9.824;2024-02-28T06:27:48;84285.09;;;-3.09;75.43
36514;BME280;74739;46.796;9.824;2024-02-28T06:30:16;84284.48;;;-3.39;76.70
36514;BME280;74739;46.796;9.824;2024-02-28T06:32:43;84289.61;;;-3.56;78.02
36514;BME280;74739;46.796;9.824;2024-02-28T06:35:10;84292.27;;;-1.19;70.26
36514;BME280;74739;46.796;9.824;2024-02-28T06:37:37;84292.67;;;-1.72;70.62
36514;BME280;74739;46.796;9.824;2024-02-28T06:40:04;84287.03;;;-0.39;65.78
36514;BME280;74739;46.796;9.824;2024-02-28T06:42:32;84297.24;;;-3.05;72.65
36514;BME280;74739;46.796;9.824;2024-02-28T06:44:59;84298.87;;;-3.26;76.37
36514;BME280;74739;46.796;9.824;2024-02-28T06:47:26;84297.26;;;-3.87;77.19
36514;BME280;74739;46.796;9.824;2024-02-28T06:49:53;84299.83;;;-3.60;78.22
36514;BME280;74739;46.796;9.824;2024-02-28T06:52:20;84306.58;;;-4.04;82.14
36514;BME280;74739;46.796;9.824;2024-02-28T06:54:47;84310.07;;;-4.05;83.37
36514;BME280;74739;46.796;9.824;2024-02-28T06:57:14;84313.67;;;-4.38;83.22
36514;BME280;74739;46.796;9.824;2024-02-28T06:59:41;84312.24;;;-4.00;81.36
36514;BME280;74739;46.796;9.824;2024-02-28T07:02:08;84310.24;;;-2.31;73.58
36514;BME280;74739;46.796;9.824;2024-02-28T07:04:36;84317.02;;;-3.10;73.41
36514;BME280;74739;46.796;9.824;2024-02-28T07:07:04;84314.26;;;-3.79;77.59
36514;BME280;74739;46.796;9.824;2024-02-28T07:09:32;84316.27;;;-4.05;78.64
36514;BME280;74739;46.796;9.824;2024-02-28T07:11:59;84323.29;;;-3.68;77.70
36514;BME280;74739;46.796;9.824;2024-02-28T07:14:25;84322.68;;;-1.73;70.71
36514;BME280;74739;46.796;9.824;2024-02-28T07:16:52;84326.37;;;-2.19;68.86
36514;BME280;74739;46.796;9.824;2024-02-28T07:19:20;84333.63;;;-2.79;68.91
36514;BME280;74739;46.796;9.824;2024-02-28T07:21:47;84336.48;;;-3.06;72.49
36514;BME280;74739;46.796;9.824;2024-02-28T07:24:14;84339.05;;;-3.47;73.31
36514;BME280;74739;46.796;9.824;2024-02-28T07:26:41;84342.96;;;-3.46;77.20
36514;BME280;74739;46.796;9.824;2024-02-28T07:29:08;84342.67;;;-3.34;76.37
36514;BME280;74739;46.796;9.824;2024-02-28T07:31:35;84338.65;;;-2.12;70.35
36514;BME280;74739;46.796;9.824;2024-02-28T07:34:02;84331.85;;;0.48;61.49
36514;BME280;74739;46.796;9.824;2024-02-28T07:36:29;84336.55;;;0.81;58.93
36514;BME280;74739;46.796;9.824;2024-02-28T07:38:56;84335.86;;;0.99;57.60
36514;BME280;74739;46.796;9.824;2024-02-28T07:41:22;84341.80;;;0.24;56.30
36514;BME280;74739;46.796;9.824;2024-02-28T07:43:49;84348.87;;;-1.25;59.79
36514;BME280;74739;46.796;9.824;2024-02-28T07:46:17;84355.33;;;-1.40;60.92
36514;BME280;74739;46.796;9.824;2024-02-28T07:48:44;84358.66;;;-2.42;65.94
36514;BME280;74739;46.796;9.824;2024-02-28T07:51:10;84360.74;;;-2.52;66.84
36514;BME280;74739;46.796;9.824;2024-02-28T07:53:37;84365.59;;;-2.32;65.44
36514;BME280;74739;46.796;9.824;2024-02-28T07:56:04;84360.07;;;0.04;60.58
36514;BME280;74739;46.796;9.824;2024-02-28T07:58:31;84362.28;;;0.87;57.07
36514;BME280;74739;46.796;9.824;2024-02-28T08:01:04;84367.47;;;0.63;57.15
36514;BME280;74739;46.796;9.824;2024-02-28T08:03:31;84375.61;;;-1.67;62.29
36514;BME280;74739;46.796;9.824;2024-02-28T08:05:57;84378.51;;;-2.98;69.21
36514;BME280;74739;46.796;9.824;2024-02-28T08:08:24;84383.84;;;-1.15;65.58
36514;BME280;74739;46.796;9.824;2024-02-28T08:10:51;84387.88;;;-2.15;63.72
36514;BME280;74739;46.796;9.824;2024-02-28T08:13:18;84391.70;;;-1.53;64.82
36514;BME280;74739;46.796;9.824;2024-02-28T08:15:45;84392.71;;;-1.45;61.64
36514;BME280;74739;46.796;9.824;2024-02-28T08:18:12;84391.94;;;-0.27;60.94
36514;BME280;74739;46.796;9.824;2024-02-28T08:20:49;84392.44;;;0.78;56.61
36514;BME280;74739;46.796;9.824;2024-02-28T08:23:17;84396.87;;;1.08;57.20
36514;BME280;74739;46.796;9.824;2024-02-28T08:25:44;84400.14;;;0.71;57.56
36514;BME280;74739;46.796;9.824;2024-02-28T08:28:12;84401.50;;;1.83;54.90
36514;BME280;74739;46.796;9.824;2024-02-28T08:30:40;84414.67;;;-2.44;66.59
36514;BME280;74739;46.796;9.824;2024-02-28T08:33:07;84419.68;;;-2.09;66.85
36514;BME280;74739;46.796;9.824;2024-02-28T08:35:34;84421.77;;;-1.75;64.40
36514;BME280;74739;46.796;9.824;2024-02-28T08:38:02;84421.12;;;-2.83;69.21
36514;BME280;74739;46.796;9.824;2024-02-28T08:40:28;84426.80;;;-1.45;64.51
36514;BME280;74739;46.796;9.824;2024-02-28T08:42:55;84429.57;;;-1.30;63.03
36514;BME280;74739;46.796;9.824;2024-02-28T08:45:23;84428.42;;;-0.49;63.43
36514;BME280;74739;46.796;9.824;2024-02-28T08:47:50;84431.14;;;-2.16;64.61
36514;BME280;74739;46.796;9.824;2024-02-28T08:50:17;84436.58;;;-1.81;63.96
36514;BME280;74739;46.796;9.824;2024-02-28T08:52:44;84438.17;;;-1.70;64.54
36514;BME280;74739;46.796;9.824;2024-02-28T08:55:11;84438.45;;;-0.25;60.41
36514;BME280;74739;46.796;9.824;2024-02-28T08:57:39;84435.14;;;0.05;59.32
36514;BME280;74739;46.796;9.824;2024-02-28T09:00:06;84437.94;;;1.08;56.38
36514;BME280;74739;46.796;9.824;2024-02-28T09:02:34;84438.85;;;1.25;55.51
36514;BME280;74739;46.796;9.824;2024-02-28T09:05:02;84439.36;;;0.05;57.60
36514;BME280;74739;46.796;9.824;2024-02-28T09:07:28;84438.90;;;0.45;57.47
36514;BME280;74739;46.796;9.824;2024-02-28T09:09:56;84448.83;;;-0.76;60.61
36514;BME280;74739;46.796;9.824;2024-02-28T09:12:24;84444.24;;;0.91;56.07
36514;BME280;74739;46.796;9.824;2024-02-28T09:14:50;84446.36;;;0.88;56.66
36514;BME280;74739;46.796;9.824;2024-02-28T09:17:17;84447.09;;;0.92;57.58
36514;BME280;74739;46.796;9.824;2024-02-28T09:19:44;84448.95;;;1.51;54.45
36514;BME280;74739;46.796;9.824;2024-02-28T09:22:11;84455.91;;;-0.38;58.11
36514;BME280;74739;46.796;9.824;2024-02-28T09:24:38;84454.03;;;1.51;55.19
36514;BME280;74739;46.796;9.824;2024-02-28T09:27:06;84463.09;;;-0.02;57.92
36514;BME280;74739;46.796;9.824;2024-02-28T09:29:33;84470.06;;;-1.69;64.77
36514;BME280;74739;46.796;9.824;2024-02-28T09:32:00;84471.13;;;-1.62;65.63
36514;BME280;74739;46.796;9.824;2024-02-28T09:34:27;84469.09;;;-0.47;63.37
36514;BME280;74739;46.796;9.824;2024-02-28T09:36:54;84463.43;;;0.25;58.62
36514;BME280;74739;46.796;9.824;2024-02-28T09:39:21;84468.08;;;-0.23;61.35
36514;BME280;74739;46.796;9.824;2024-02-28T09:41:48;84468.62;;;-1.25;61.16
36514;BME280;74739;46.796;9.824;2024-02-28T09:44:16;84473.82;;;-1.25;63.23
36514;BME280;74739;46.796;9.824;2024-02-28T09:46:43;84472.18;;;-1.96;66.00
36514;BME280;74739;46.796;9.824;2024-02-28T09:49:11;84472.11;;;-0.29;62.46
36514;BME280;74739;46.796;9.824;2024-02-28T09:51:37;84465.95;;;0.78;59.30
36514;BME280;74739;46.796;9.824;2024-02-28T09:54:04;84473.67;;;0.14;59.58
36514;BME280;74739;46.796;9.824;2024-02-28T09:56:33;84478.18;;;-1.07;62.84
36514;BME280;74739;46.796;9.824;2024-02-28T09:59:00;84479.32;;;-1.66;64.57
36514;BME280;74739;46.796;9.824;2024-02-28T10:01:42;84479.01;;;-1.56;68.05
36514;BME280;74739;46.796;9.824;2024-02-28T10:04:10;84481.58;;;-1.85;66.56
36514;BME280;74739;46.796;9.824;2024-02-28T10:06:36;84480.30;;;-1.23;62.50
36514;BME280;74739;46.796;9.824;2024-02-28T10:09:03;84471.81;;;0.44;60.47
36514;BME280;74739;46.796;9.824;2024-02-28T10:11:31;84480.74;;;0.18;59.98
36514;BME280;74739;46.796;9.824;2024-02-28T10:13:59;84481.89;;;-1.18;63.92
36514;BME280;74739;46.796;9.824;2024-02-28T10:16:25;84482.51;;;-1.23;64.53
36514;BME280;74739;46.796;9.824;2024-02-28T10:18:53;84483.48;;;-1.39;64.82
36514;BME280;74739;46.796;9.824;2024-02-28T10:21:20;84484.54;;;-1.31;66.18
36514;BME280;74739;46.796;9.824;2024-02-28T10:23:47;84487.93;;;-0.73;66.54
36514;BME280;74739;46.796;9.824;2024-02-28T10:26:14;84490.80;;;-1.05;65.84
36514;BME280;74739;46.796;9.824;2024-02-28T10:28:41;84496.07;;;-1.69;66.91
36514;BME280;74739;46.796;9.824;2024-02-28T10:31:08;84497.72;;;-0.60;67.06
36514;BME280;74739;46.796;9.824;2024-02-28T10:33:35;84494.94;;;0.30;62.79
36514;BME280;74739;46.796;9.824;2024-02-28T10:36:03;84494.73;;;-0.45;61.71
36514;BME280;74739;46.796;9.824;2024-02-28T10:38:31;84495.92;;;-0.79;61.19
36514;BME280;74739;46.796;9.824;2024-02-28T10:40:59;84491.10;;;0.44;60.91
36514;BME280;74739;46.796;9.824;2024-02-28T10:43:28;84494.32;;;-1.45;65.35
36514;BME280;74739;46.796;9.824;2024-02-28T10:45:56;84492.35;;;-1.03;66.77
36514;BME280;74739;46.796;9.824;2024-02-28T10:48:24;84490.97;;;-1.54;67.59
36514;BME280;74739;46.796;9.824;2024-02-28T10:50:52;84490.74;;;-0.29;64.09
36514;BME280;74739;46.796;9.824;2024-02-28T10:53:21;84488.81;;;-1.52;65.54
36514;BME280;74739;46.796;9.824;2024-02-28T10:55:49;84493.53;;;-0.02;62.08
36514;BME280;74739;46.796;9.824;2024-02-28T10:58:17;84485.69;;;1.01;59.48
36514;BME280;74739;46.796;9.824;2024-02-28T11:00:46;84486.89;;;2.06;56.16
36514;BME280;74739;46.796;9.824;2024-02-28T11:03:16;84494.40;;;-0.03;60.74
36514;BME280;74739;46.796;9.824;2024-02-28T11:05:44;84493.04;;;-0.71;64.19
36514;BME280;74739;46.796;9.824;2024-02-28T11:08:19;84488.15;;;0.45;62.21
36514;BME280;74739;46.796;9.824;2024-02-28T11:10:46;84483.13;;;1.26;60.63
36514;BME280;74739;46.796;9.824;2024-02-28T11:13:22;84486.65;;;0.92;62.24
36514;BME280;74739;46.796;9.824;2024-02-28T11:15:48;84485.86;;;-0.94;66.43
36514;BME280;74739;46.796;9.824;2024-02-28T11:18:15;84479.61;;;1.08;62.05
36514;BME280;74739;46.796;9.824;2024-02-28T11:20:42;84482.58;;;0.29;62.99
36514;BME280;74739;46.796;9.824;2024-02-28T11:23:09;84481.05;;;-0.08;64.15
36514;BME280;74739;46.796;9.824;2024-02-28T11:25:36;84471.66;;;0.62;62.54
36514;BME280;74739;46.796;9.824;2024-02-28T11:28:04;84471.90;;;0.90;62.66
36514;BME280;74739;46.796;9.824;2024-02-28T11:30:31;84466.43;;;1.66;58.91
36514;BME280;74739;46.796;9.824;2024-02-28T11:32:58;84462.74;;;2.14;58.39
36514;BME280;74739;46.796;9.824;2024-02-28T11:35:25;84463.47;;;1.96;58.30
36514;BME280;74739;46.796;9.824;2024-02-28T11:37:54;84460.06;;;0.94;61.66
36514;BME280;74739;46.796;9.824;2024-02-28T11:40:22;84455.84;;;1.02;61.38
36514;BME280;74739;46.796;9.824;2024-02-28T11:42:49;84453.79;;;0.95;60.20
36514;BME280;74739;46.796;9.824;2024-02-28T11:45:16;84453.74;;;1.40;60.54
36514;BME280;74739;46.796;9.824;2024-02-28T11:47:44;84449.19;;;1.11;61.19
36514;BME280;74739;46.796;9.824;2024-02-28T11:50:12;84448.45;;;1.23;60.58
36514;BME280;74739;46.796;9.824;2024-02-28T11:52:40;84447.05;;;1.50;59.89
36514;BME280;74739;46.796;9.824;2024-02-28T11:55:07;84444.86;;;0.55;65.00
36514;BME280;74739;46.796;9.824;2024-02-28T11:57:34;84439.60;;;1.54;61.03
36514;BME280;74739;46.796;9.824;2024-02-28T12:00:03;84440.79;;;1.73;59.51
36514;BME280;74739;46.796;9.824;2024-02-28T12:02:30;84438.45;;;1.81;58.97
36514;BME280;74739;46.796;9.824;2024-02-28T12:05:01;84438.30;;;2.01;59.86
36514;BME280;74739;46.796;9.824;2024-02-28T12:07:29;84432.45;;;1.94;58.64
36514;BME280;74739;46.796;9.824;2024-02-28T12:09:56;84431.14;;;2.24;56.85
36514;BME280;74739;46.796;9.824;2024-02-28T12:12:23;84428.05;;;2.51;58.03
36514;BME280;74739;46.796;9.824;2024-02-28T12:14:51;84432.22;;;1.55;60.09
36514;BME280;74739;46.796;9.824;2024-02-28T12:17:17;84433.21;;;0.79;63.90
36514;BME280;74739;46.796;9.824;2024-02-28T12:19:44;84425.75;;;1.24;63.21
36514;BME280;74739;46.796;9.824;2024-02-28T12:22:12;84420.12;;;1.88;61.43
36514;BME280;74739;46.796;9.824;2024-02-28T12:24:38;84419.89;;;1.39;62.09
36514;BME280;74739;46.796;9.824;2024-02-28T12:27:06;84413.02;;;1.75;61.06
36514;BME280;74739;46.796;9.824;2024-02-28T12:29:32;84412.65;;;1.78;60.00
36514;BME280;74739;46.796;9.824;2024-02-28T12:31:59;84408.91;;;2.01;58.88
36514;BME280;74739;46.796;9.824;2024-02-28T12:34:26;84409.77;;;2.16;59.49
36514;BME280;74739;46.796;9.824;2024-02-28T12:36:53;84408.86;;;2.16;59.86
36514;BME280;74739;46.796;9.824;2024-02-28T12:39:21;84409.21;;;0.98;62.22
36514;BME280;74739;46.796;9.824;2024-02-28T12:41:49;84405.29;;;0.80;63.28
36514;BME280;74739;46.796;9.824;2024-02-28T12:44:16;84402.06;;;1.58;62.14
36514;BME280;74739;46.796;9.824;2024-02-28T12:46:44;84404.13;;;1.18;64.17
36514;BME280;74739;46.796;9.824;2024-02-28T12:49:10;84403.70;;;0.89;63.74
36514;BME280;74739;46.796;9.824;2024-02-28T12:51:39;84405.14;;;0.99;65.04
36514;BME280;74739;46.796;9.824;2024-02-28T12:54:06;84405.24;;;0.30;67.15
36514;BME280;74739;46.796;9.824;2024-02-28T12:56:34;84404.22;;;0.70;64.20
36514;BME280;74739;46.796;9.824;2024-02-28T12:59:02;84399.65;;;1.30;65.00
36514;BME280;74739;46.796;9.824;2024-02-28T13:01:29;84395.59;;;1.59;62.33
36514;BME280;74739;46.796;9.824;2024-02-28T13:03:57;84393.01;;;2.75;58.40
36514;BME280;74739;46.796;9.824;2024-02-28T13:06:24;84393.94;;;1.20;61.59